Time;durP1;ratioP1;P1;durP2;ratioP2;P2;SDS_P1;SDS_P2;PMS_P1;PMS_P2;Temp;Humidity;BMP_temperature;BMP_pressure;BME280_temperature;BME280_humidity;BME280_pressure;Samples;Min_cycle;Max_cycle;Signal;HPM_P1;HPM_P2
2021/12/16 00:02:14;;;;;;;17.08;7.47;;;9.60;79.50;;;;;;6227329;28;20615;-83
2021/12/16 00:05:31;;;;;;;13.82;7.63;;;9.60;79.40;;;;;;6227203;28;20042;-82
2021/12/16 00:08:36;;;;;;;13.73;7.55;;;9.60;79.40;;;;;;6227460;28;20050;-81
2021/12/16 00:31:54;;;;;;;14.02;7.45;;;9.60;79.50;;;;;;6168638;28;20057;-81
2021/12/16 00:34:57;;;;;;;14.55;7.57;;;9.60;79.50;;;;;;6227100;28;20053;-81
2021/12/16 00:38:00;;;;;;;14.48;7.65;;;9.60;79.50;;;;;;6227343;28;20136;-83
2021/12/16 00:41:02;;;;;;;13.65;7.75;;;9.60;79.60;;;;;;6227289;28;20050;-83
2021/12/16 00:44:11;;;;;;;13.30;7.30;;;9.60;79.60;;;;;;6228075;28;20396;-82
2021/12/16 00:47:29;;;;;;;14.30;8.68;;;9.60;79.60;;;;;;6228606;28;20062;-81
2021/12/16 00:54:09;;;;;;;8.80;5.18;;;9.40;79.70;;;;;;6201620;28;20050;-81
2021/12/16 00:57:14;;;;;;;8.90;5.78;;;9.30;80.10;;;;;;6201575;28;20074;-82
2021/12/16 01:00:17;;;;;;;10.32;5.00;;;9.30;80.30;;;;;;6201553;28;20416;-82
2021/12/16 01:03:26;;;;;;;15.18;6.13;;;9.30;80.50;;;;;;6201694;28;20058;-82
2021/12/16 01:06:48;;;;;;;8.68;5.43;;;9.20;80.60;;;;;;6196236;28;20508;-82
2021/12/16 01:33:51;;;;;;;8.95;5.35;;;9.10;81.00;;;;;;6204106;28;20058;-77
2021/12/16 01:40:24;;;;;;;10.73;6.00;;;9.10;81.40;;;;;;6201828;28;20038;-81
2021/12/16 01:47:13;;;;;;;9.38;5.15;;;9.10;81.20;;;;;;6205825;28;20047;-81
2021/12/16 01:50:21;;;;;;;12.75;6.20;;;9.10;81.00;;;;;;6207618;28;20054;-82
2021/12/16 01:53:48;;;;;;;10.60;5.70;;;9.20;81.00;;;;;;6207823;28;20504;-82
2021/12/16 01:56:53;;;;;;;11.20;6.32;;;9.20;80.90;;;;;;6207221;28;20057;-82
2021/12/16 02:00:05;;;;;;;14.52;5.35;;;9.30;80.90;;;;;;6207516;28;20049;-81
2021/12/16 02:03:07;;;;;;;12.60;5.45;;;9.40;80.90;;;;;;6207482;28;20404;-84
2021/12/16 02:06:24;;;;;;;13.00;6.38;;;9.30;80.90;;;;;;6206756;28;20133;-84
2021/12/16 02:09:33;;;;;;;12.43;6.47;;;9.30;80.90;;;;;;6207952;28;20052;-83
2021/12/16 02:12:51;;;;;;;8.73;4.68;;;9.30;81.00;;;;;;6206786;28;20047;-83
2021/12/16 02:29:29;;;;;;;13.38;6.85;;;9.20;81.50;;;;;;6206318;28;20058;-81
2021/12/16 02:32:44;;;;;;;9.70;5.85;;;9.20;81.40;;;;;;6206111;28;20051;-85
2021/12/16 02:35:58;;;;;;;10.70;5.40;;;9.20;81.50;;;;;;6218261;28;20065;-82
2021/12/16 02:39:06;;;;;;;9.70;5.13;;;9.10;81.30;;;;;;6222578;28;20082;-80
2021/12/16 02:42:13;;;;;;;;;;;9.10;81.50;;;;;;6223166;28;20042;-80
2021/12/16 02:48:35;;;;;;;11.23;4.63;;;9.10;81.20;;;;;;6210839;28;20056;-79
2021/12/16 02:51:37;;;;;;;6.68;4.60;;;9.10;81.40;;;;;;6215125;28;20083;-80
2021/12/16 02:54:41;;;;;;;10.45;6.18;;;9.10;81.60;;;;;;6215873;28;20735;-79
2021/12/16 02:57:47;;;;;;;10.57;5.50;;;9.00;81.50;;;;;;6216398;28;20097;-81
2021/12/16 03:00:53;;;;;;;8.75;5.82;;;9.00;81.70;;;;;;6197477;28;20048;-82
2021/12/16 03:03:57;;;;;;;11.15;5.25;;;9.00;81.80;;;;;;6197353;28;20115;-82
2021/12/16 03:07:00;;;;;;;11.43;5.75;;;8.90;81.70;;;;;;6191369;28;20082;-83
2021/12/16 03:10:43;;;;;;;11.20;6.10;;;8.90;81.90;;;;;;6182203;28;20051;-82
2021/12/16 03:13:49;;;;;;;11.03;5.80;;;8.90;81.90;;;;;;6181883;28;20054;-83
2021/12/16 03:17:05;;;;;;;10.90;5.43;;;8.90;82.00;;;;;;6182635;28;20317;-83
2021/12/16 03:20:14;;;;;;;12.75;6.57;;;8.90;81.90;;;;;;6182182;28;20047;-83
2021/12/16 03:23:32;;;;;;;10.15;5.25;;;8.80;82.00;;;;;;6182939;28;20051;-84
2021/12/16 03:40:18;;;;;;;8.30;4.35;;;8.70;82.30;;;;;;6317521;27;20448;-81
2021/12/16 03:43:21;;;;;;;8.88;4.32;;;8.60;82.50;;;;;;6325689;28;20094;-81
2021/12/16 03:46:26;;;;;;;11.77;4.97;;;8.50;82.70;;;;;;6323298;27;20087;-81
2021/12/16 03:49:30;;;;;;;6.65;3.63;;;8.50;82.60;;;;;;6323229;27;20044;-81
2021/12/16 03:52:32;;;;;;;9.55;4.07;;;8.50;82.80;;;;;;6322366;27;20123;-81
2021/12/16 03:55:34;;;;;;;6.93;3.03;;;8.60;82.40;;;;;;6332495;27;20052;-80
2021/12/16 03:58:36;;;;;;;6.53;3.58;;;8.50;82.00;;;;;;6334621;28;20135;-79
2021/12/16 04:01:38;;;;;;;5.00;3.42;;;8.50;82.10;;;;;;6333117;27;20044;-79
2021/12/16 04:04:43;;;;;;;8.15;3.38;;;8.50;82.10;;;;;;6333668;27;20048;-79
2021/12/16 04:07:46;;;;;;;5.15;3.30;;;8.60;82.00;;;;;;6335350;27;20048;-80
2021/12/16 04:11:00;;;;;;;5.43;2.80;;;8.60;81.60;;;;;;6338073;28;20082;-80
2021/12/16 04:14:03;;;;;;;5.90;2.97;;;8.50;81.70;;;;;;6346365;27;20054;-79
2021/12/16 04:17:07;;;;;;;5.30;2.47;;;8.50;81.50;;;;;;6345333;27;20075;-79
2021/12/16 04:20:13;;;;;;;6.47;3.10;;;8.60;81.30;;;;;;6340489;27;20123;-79
2021/12/16 04:23:18;;;;;;;5.25;2.50;;;8.50;81.10;;;;;;6341433;28;20112;-80
2021/12/16 04:26:20;;;;;;;5.45;2.53;;;8.50;81.30;;;;;;6341370;27;20075;-80
2021/12/16 04:29:23;;;;;;;5.47;2.60;;;8.50;81.40;;;;;;6340545;27;20104;-80
2021/12/16 04:32:25;;;;;;;4.07;2.40;;;8.50;81.10;;;;;;6340908;27;20044;-80
2021/12/16 04:35:28;;;;;;;5.00;2.42;;;8.50;81.20;;;;;;6340571;28;20112;-79
2021/12/16 04:38:30;;;;;;;3.92;2.40;;;8.50;81.10;;;;;;6330924;28;20074;-81
2021/12/16 04:41:32;;;;;;;3.67;1.90;;;8.50;81.00;;;;;;6346872;28;20111;-81
2021/12/16 04:44:34;;;;;;;2.97;1.73;;;8.50;81.10;;;;;;6332563;28;20071;-80
2021/12/16 04:47:37;;;;;;;3.13;1.95;;;8.60;81.10;;;;;;6314108;28;20065;-81
2021/12/16 04:50:40;;;;;;;3.60;1.52;;;8.50;80.70;;;;;;6338439;28;20058;-83
2021/12/16 04:53:43;;;;;;;4.50;2.10;;;8.50;80.80;;;;;;6319209;28;20131;-80
2021/12/16 04:56:45;;;;;;;3.20;1.98;;;8.40;81.00;;;;;;6324031;28;20044;-81
2021/12/16 04:59:47;;;;;;;3.55;1.63;;;8.40;80.90;;;;;;6335112;28;20131;-79
2021/12/16 05:02:49;;;;;;;5.80;1.95;;;8.30;80.90;;;;;;6313244;28;20132;-81
2021/12/16 05:05:53;;;;;;;3.28;1.67;;;8.30;81.00;;;;;;6331701;28;20040;-83
2021/12/16 05:08:55;;;;;;;2.85;1.65;;;8.20;81.10;;;;;;6325379;28;20045;-82
2021/12/16 05:11:57;;;;;;;3.50;1.83;;;8.20;81.20;;;;;;6315692;28;20040;-81
2021/12/16 05:14:59;;;;;;;3.70;2.03;;;8.20;81.20;;;;;;6337099;28;20101;-80
2021/12/16 05:18:05;;;;;;;2.55;1.48;;;8.20;81.10;;;;;;6317041;28;20112;-81
2021/12/16 05:21:13;;;;;;;5.45;1.55;;;8.30;81.10;;;;;;6327205;28;20048;-80
2021/12/16 05:24:25;;;;;;;;;;;8.30;80.80;;;;;;6333025;28;20063;-81
2021/12/16 05:27:27;;;;;;;3.95;1.40;;;8.30;80.80;;;;;;6313893;28;19916;-82
2021/12/16 05:30:28;;;;;;;3.17;1.42;;;8.30;80.60;;;;;;6338817;28;20127;-81
2021/12/16 05:33:31;;;;;;;3.58;1.83;;;8.30;80.60;;;;;;6321709;28;20421;-82
2021/12/16 05:36:35;;;;;;;3.67;1.50;;;8.30;80.70;;;;;;6323149;28;20591;-82
2021/12/16 05:39:37;;;;;;;2.67;1.52;;;8.30;80.60;;;;;;6339887;28;20044;-81
2021/12/16 05:42:39;;;;;;;4.30;1.45;;;8.40;80.40;;;;;;6314766;28;20040;-80
2021/12/16 05:45:43;;;;;;;3.25;1.40;;;8.30;80.30;;;;;;6334002;28;20063;-82
2021/12/16 05:48:47;;;;;;;2.72;1.48;;;8.40;80.50;;;;;;6328594;28;20139;-80
2021/12/16 05:51:50;;;;;;;4.25;1.85;;;8.50;80.40;;;;;;6319109;28;20059;-79
2021/12/16 05:54:52;;;;;;;6.45;1.38;;;8.50;79.80;;;;;;6340215;28;20504;-81
2021/12/16 05:57:55;;;;;;;3.95;1.50;;;8.40;80.00;;;;;;6320911;28;20066;-81
2021/12/16 06:01:00;;;;;;;3.05;1.33;;;8.50;80.10;;;;;;6328592;28;20127;-80
2021/12/16 06:04:02;;;;;;;2.50;1.15;;;8.50;79.90;;;;;;6335765;28;20047;-81
2021/12/16 06:07:06;;;;;;;3.00;1.77;;;8.50;79.80;;;;;;6318618;28;20059;-80
2021/12/16 06:10:13;;;;;;;4.43;1.50;;;8.50;79.50;;;;;;6339673;28;20505;-80
2021/12/16 06:13:15;;;;;;;2.20;1.23;;;8.50;79.80;;;;;;6322953;28;20525;-81
2021/12/16 06:26:31;;;;;;;7.93;2.78;;;8.50;79.50;;;;;;6278517;28;20044;-80
2021/12/16 06:29:34;;;;;;;3.08;1.58;;;8.50;79.30;;;;;;6321498;28;20094;-80
2021/12/16 06:32:36;;;;;;;3.17;1.55;;;8.50;79.50;;;;;;6320219;28;20050;-81
2021/12/16 06:35:38;;;;;;;4.90;1.45;;;8.50;80.20;;;;;;6309772;28;20048;-79
2021/12/16 06:38:41;;;;;;;3.25;1.63;;;8.60;79.40;;;;;;6304698;28;20052;-80
2021/12/16 06:41:43;;;;;;;3.15;1.60;;;8.60;79.30;;;;;;6303957;28;20090;-80
2021/12/16 06:44:51;;;;;;;7.03;1.92;;;8.70;79.10;;;;;;6313957;28;20048;-80
2021/12/16 06:47:57;;;;;;;6.15;2.05;;;8.70;79.10;;;;;;6326992;28;20048;-79
2021/12/16 06:51:03;;;;;;;4.45;1.73;;;8.80;78.90;;;;;;6304091;28;20080;-79
2021/12/16 06:54:10;;;;;;;4.32;1.98;;;8.80;78.70;;;;;;6326564;28;20054;-81
2021/12/16 06:57:20;;;;;;;5.30;2.20;;;8.80;79.00;;;;;;6315288;28;20076;-80
2021/12/16 07:00:32;;;;;;;2.88;1.33;;;8.80;78.90;;;;;;6309618;28;20046;-80
2021/12/16 07:03:45;;;;;;;2.95;1.83;;;8.80;78.90;;;;;;6328493;28;20416;-79
2021/12/16 07:06:47;;;;;;;5.53;2.35;;;8.80;79.00;;;;;;6303281;28;20135;-80
2021/12/16 07:09:50;;;;;;;3.88;1.75;;;8.70;78.70;;;;;;6323476;28;20518;-81
2021/12/16 07:12:55;;;;;;;4.78;1.50;;;8.70;78.90;;;;;;6320820;28;20127;-80
2021/12/16 07:15:57;;;;;;;2.97;1.20;;;8.70;78.90;;;;;;6312131;28;20063;-80
2021/12/16 07:18:59;;;;;;;9.45;2.28;;;8.70;79.00;;;;;;6333669;28;20060;-79
2021/12/16 07:22:02;;;;;;;8.80;2.60;;;8.80;79.00;;;;;;6307890;28;20037;-80
2021/12/16 07:25:07;;;;;;;5.40;1.25;;;8.80;78.80;;;;;;6317518;28;20104;-79
2021/12/16 07:28:09;;;;;;;4.00;1.23;;;8.80;78.70;;;;;;6325356;28;20504;-81
2021/12/16 07:31:11;;;;;;;3.35;1.45;;;8.80;79.40;;;;;;6307262;28;20494;-79
2021/12/16 07:34:13;;;;;;;2.20;1.02;;;8.80;78.70;;;;;;6328538;28;20048;-80
2021/12/16 07:37:15;;;;;;;2.20;1.20;;;8.70;78.90;;;;;;6314108;28;20048;-81
2021/12/16 07:40:22;;;;;;;2.90;1.30;;;8.80;78.80;;;;;;6309951;28;20040;-81
2021/12/16 07:43:30;;;;;;;4.68;1.35;;;8.70;78.80;;;;;;6328643;28;20054;-81
2021/12/16 07:46:31;;;;;;;2.88;1.52;;;8.70;79.00;;;;;;6330449;28;20058;-82
2021/12/16 07:49:35;;;;;;;3.47;1.58;;;8.70;79.10;;;;;;6313658;28;20048;-82
2021/12/16 07:52:40;;;;;;;3.25;1.45;;;8.80;79.00;;;;;;6316805;28;20062;-80
2021/12/16 07:55:43;;;;;;;3.90;1.23;;;8.70;78.80;;;;;;6330617;28;20073;-81
2021/12/16 07:58:45;;;;;;;2.75;1.50;;;8.70;78.80;;;;;;6307971;28;20120;-82
2021/12/16 08:01:47;;;;;;;4.30;2.25;;;8.60;78.90;;;;;;6325952;28;20054;-81
2021/12/16 08:04:51;;;;;;;12.35;2.45;;;8.60;79.10;;;;;;6320185;28;20048;-82
2021/12/16 08:07:54;;;;;;;3.47;1.80;;;8.60;79.00;;;;;;6307368;28;20044;-81
2021/12/16 08:10:58;;;;;;;5.65;2.08;;;8.70;79.20;;;;;;6329897;28;20351;-81
2021/12/16 08:14:00;;;;;;;4.57;2.17;;;8.70;79.00;;;;;;6307790;28;20040;-81
2021/12/16 08:17:01;;;;;;;2.70;1.63;;;8.80;78.80;;;;;;6316589;28;20040;-80
2021/12/16 08:20:07;;;;;;;2.97;1.45;;;8.80;78.50;;;;;;6327561;28;20123;-81
2021/12/16 08:23:08;;;;;;;4.00;1.48;;;8.90;78.50;;;;;;6308489;28;20051;-80
2021/12/16 08:26:12;;;;;;;3.13;1.65;;;9.00;78.40;;;;;;6330668;28;20054;-80
2021/12/16 08:29:14;;;;;;;3.30;1.60;;;9.10;78.20;;;;;;6320712;28;20051;-80
2021/12/16 08:32:16;;;;;;;6.32;1.58;;;9.20;77.80;;;;;;6316756;28;20101;-81
2021/12/16 08:35:18;;;;;;;3.85;1.92;;;9.20;77.50;;;;;;6334563;28;20052;-81
2021/12/16 08:38:24;;;;;;;4.32;1.95;;;9.30;77.50;;;;;;6313018;28;20086;-82
2021/12/16 08:41:31;;;;;;;3.60;1.92;;;9.40;77.50;;;;;;6327483;28;20056;-81
2021/12/16 08:44:33;;;;;;;5.53;2.28;;;9.50;77.30;;;;;;6325718;28;20086;-82
2021/12/16 08:47:35;;;;;;;4.45;2.42;;;9.60;77.70;;;;;;6310400;28;20049;-82
2021/12/16 08:50:41;;;;;;;4.70;3.30;;;9.60;77.10;;;;;;6334037;28;20642;-82
2021/12/16 08:53:43;;;;;;;6.32;4.30;;;9.60;76.90;;;;;;6315916;28;20047;-82
2021/12/16 08:56:47;;;;;;;7.03;3.85;;;9.70;76.90;;;;;;6320396;28;20104;-81
2021/12/16 08:59:49;;;;;;;4.30;2.63;;;9.70;76.70;;;;;;6332158;28;20089;-80
2021/12/16 09:02:51;;;;;;;3.95;1.95;;;9.80;76.50;;;;;;6310130;28;20055;-82
2021/12/16 09:05:52;;;;;;;2.55;1.85;;;9.90;76.30;;;;;;6328878;28;20048;-82
2021/12/16 09:08:56;;;;;;;6.57;2.50;;;9.90;75.80;;;;;;6322184;28;20064;-81
2021/12/16 09:12:08;;;;;;;6.10;2.75;;;9.90;76.10;;;;;;6314063;28;20056;-81
2021/12/16 09:15:10;;;;;;;5.32;2.05;;;9.90;76.00;;;;;;6334577;28;20139;-82
2021/12/16 09:18:13;;;;;;;3.45;1.55;;;9.90;75.90;;;;;;6312472;28;20070;-80
2021/12/16 09:21:19;;;;;;;7.55;2.25;;;10.10;75.80;;;;;;6326461;28;20064;-81
2021/12/16 09:24:21;;;;;;;7.10;2.47;;;10.20;75.50;;;;;;6330004;28;20056;-79
2021/12/16 09:27:24;;;;;;;6.22;3.10;;;10.20;75.00;;;;;;6311958;28;20152;-82
2021/12/16 09:30:30;;;;;;;4.28;2.08;;;10.30;74.80;;;;;;6335067;28;20107;-83
2021/12/16 09:33:33;;;;;;;10.20;3.28;;;10.40;74.60;;;;;;6318723;28;20169;-81
2021/12/16 09:36:38;;;;;;;6.85;2.95;;;10.40;74.40;;;;;;6318952;28;20425;-81
2021/12/16 09:39:41;;;;;;;7.45;3.40;;;10.40;74.30;;;;;;6331546;28;20060;-82
2021/12/16 09:42:44;;;;;;;7.32;2.95;;;10.50;74.10;;;;;;6308319;28;20048;-80
2021/12/16 09:45:46;;;;;;;6.25;3.30;;;10.60;73.80;;;;;;6299707;28;20052;-79
2021/12/16 09:48:49;;;;;;;7.72;3.28;;;10.60;73.40;;;;;;6310455;28;20044;-80
2021/12/16 09:51:53;;;;;;;6.45;2.65;;;10.70;73.20;;;;;;6307999;28;20185;-80
2021/12/16 09:54:55;;;;;;;7.68;3.13;;;10.70;73.00;;;;;;6307126;28;20104;-79
2021/12/16 09:57:58;;;;;;;6.88;3.58;;;10.80;72.90;;;;;;6292710;28;20086;-79
2021/12/16 10:01:00;;;;;;;4.13;2.90;;;10.80;72.70;;;;;;6285769;28;20068;-80
2021/12/16 10:04:05;;;;;;;6.53;3.15;;;10.80;72.50;;;;;;6285625;28;20041;-78
2021/12/16 10:07:11;;;;;;;11.10;5.65;;;10.90;72.10;;;;;;6282316;28;20060;-80
2021/12/16 10:10:16;;;;;;;4.90;3.05;;;10.80;72.00;;;;;;6280989;28;20069;-81
2021/12/16 10:13:30;;;;;;;5.93;2.67;;;10.80;72.20;;;;;;6287455;23;20130;-80
2021/12/16 10:19:55;;;;;;;3.55;2.05;;;10.80;71.60;;;;;;6241535;28;20037;-80
2021/12/16 10:23:05;;;;;;;4.95;2.78;;;10.80;71.90;;;;;;6265620;28;20045;-83
2021/12/16 10:26:10;;;;;;;6.15;3.72;;;10.80;71.50;;;;;;6275861;28;20517;-80
2021/12/16 10:29:13;;;;;;;5.13;2.78;;;10.80;71.30;;;;;;6275752;28;20178;-79
2021/12/16 10:32:39;;;;;;;5.68;2.90;;;10.80;71.40;;;;;;6275363;28;20045;-81
2021/12/16 10:35:41;;;;;;;4.60;2.65;;;10.80;71.60;;;;;;6275539;28;20130;-78
2021/12/16 10:38:46;;;;;;;5.63;2.92;;;10.90;71.60;;;;;;6275590;28;20095;-79
2021/12/16 10:41:52;;;;;;;4.68;3.17;;;10.90;71.30;;;;;;6274712;28;20041;-80
2021/12/16 10:44:56;;;;;;;5.60;3.25;;;11.00;71.80;;;;;;6274811;28;20056;-80
2021/12/16 10:48:21;;;;;;;6.68;3.53;;;11.00;70.90;;;;;;6271037;28;20044;-79
2021/12/16 10:51:28;;;;;;;6.70;3.58;;;11.10;70.60;;;;;;6264281;28;20110;-79
2021/12/16 10:54:34;;;;;;;5.20;2.58;;;11.10;70.30;;;;;;6275145;28;20128;-79
2021/12/16 10:57:36;;;;;;;6.05;2.95;;;11.10;70.50;;;;;;6275374;28;20130;-79
2021/12/16 11:00:39;;;;;;;5.07;2.90;;;11.20;70.60;;;;;;6274825;28;20041;-79
2021/12/16 11:03:42;;;;;;;5.70;3.03;;;11.30;70.50;;;;;;6274831;28;20060;-79
2021/12/16 11:06:47;;;;;;;6.97;4.22;;;11.30;70.10;;;;;;6274822;28;20131;-82
2021/12/16 11:09:56;;;;;;;5.50;2.97;;;11.30;69.70;;;;;;6274661;28;20056;-80
2021/12/16 11:12:59;;;;;;;5.32;2.83;;;11.30;69.70;;;;;;6273929;28;20049;-79
2021/12/16 11:16:03;;;;;;;5.00;2.95;;;11.20;69.80;;;;;;6274537;28;20127;-79
2021/12/16 11:19:05;;;;;;;4.85;2.83;;;11.20;70.10;;;;;;6262828;28;20049;-81
2021/12/16 11:22:07;;;;;;;4.63;2.60;;;11.10;69.80;;;;;;6274406;28;20364;-80
2021/12/16 11:25:16;;;;;;;5.93;2.90;;;11.20;70.00;;;;;;6274185;28;20589;-81
2021/12/16 11:28:21;;;;;;;5.85;2.90;;;11.20;70.00;;;;;;6274857;28;20045;-79
2021/12/16 11:31:26;;;;;;;5.55;3.15;;;11.20;69.70;;;;;;6275085;28;20187;-79
2021/12/16 11:34:29;;;;;;;8.27;3.42;;;11.20;69.50;;;;;;6274016;28;20047;-79
2021/12/16 11:37:30;;;;;;;7.05;3.13;;;11.30;69.60;;;;;;6274188;28;20065;-79
2021/12/16 11:41:05;;;;;;;7.18;3.38;;;11.30;69.80;;;;;;6273985;28;20418;-80
2021/12/16 11:44:11;;;;;;;4.88;2.80;;;11.50;69.80;;;;;;6274531;28;20048;-82
2021/12/16 11:47:19;;;;;;;5.63;3.33;;;11.60;69.40;;;;;;6270673;28;20077;-80
2021/12/16 11:50:21;;;;;;;;;;;11.60;69.20;;;;;;6265729;28;20041;-80
2021/12/16 11:53:23;;;;;;;8.13;3.78;;;11.80;69.00;;;;;;6275914;28;19921;-79
2021/12/16 11:56:40;;;;;;;6.88;3.50;;;11.80;68.70;;;;;;6277826;28;20048;-80
2021/12/16 11:59:45;;;;;;;6.28;3.00;;;11.90;68.70;;;;;;6278825;28;20183;-79
2021/12/16 12:02:50;;;;;;;7.53;3.38;;;12.00;68.50;;;;;;6279770;28;20059;-79
2021/12/16 12:05:53;;;;;;;8.25;3.15;;;12.00;68.20;;;;;;6278551;28;20049;-80
2021/12/16 12:08:57;;;;;;;5.85;3.17;;;12.10;68.20;;;;;;6278228;28;20055;-80
2021/12/16 12:11:59;;;;;;;13.00;4.15;;;12.20;67.90;;;;;;6278704;28;20041;-80
2021/12/16 12:15:07;;;;;;;6.93;3.70;;;12.40;67.70;;;;;;6278904;28;20451;-81
2021/12/16 12:18:10;;;;;;;11.82;4.47;;;12.50;67.40;;;;;;6273543;28;20370;-79
2021/12/16 12:21:26;;;;;;;7.13;3.88;;;12.60;67.20;;;;;;6271282;28;20138;-82
2021/12/16 12:24:32;;;;;;;7.22;4.20;;;12.60;67.00;;;;;;6279648;28;20045;-80
2021/12/16 12:27:35;;;;;;;8.68;4.30;;;12.70;66.80;;;;;;6277723;28;20049;-81
2021/12/16 12:30:37;;;;;;;7.40;4.32;;;12.70;66.60;;;;;;6253143;28;20053;-80
2021/12/16 12:33:40;;;;;;;9.77;4.07;;;12.80;66.60;;;;;;6253424;28;20056;-80
2021/12/16 12:36:46;;;;;;;10.10;5.07;;;12.90;66.50;;;;;;6255662;28;20442;-82
2021/12/16 12:44:13;;;;;;;6.65;3.50;;;13.00;65.80;;;;;;6226860;28;20391;-82
2021/12/16 12:47:16;;;;;;;;;;;13.10;65.80;;;;;;6252683;28;20050;-81
2021/12/16 12:50:24;;;;;;;7.00;3.75;;;13.20;65.70;;;;;;6276355;28;19944;-82
2021/12/16 13:00:54;;;;;;;7.80;4.28;;;13.10;65.70;;;;;;6246617;28;20683;-80
2021/12/16 13:04:03;;;;;;;10.52;4.55;;;13.00;66.30;;;;;;6254471;28;20048;-82
2021/12/16 13:07:08;;;;;;;7.45;4.60;;;13.00;67.70;;;;;;6258227;28;20049;-82
2021/12/16 13:10:14;;;;;;;10.05;4.13;;;13.10;66.80;;;;;;6259364;28;20136;-81
2021/12/16 13:13:30;;;;;;;8.73;4.47;;;13.20;66.30;;;;;;6253692;28;20045;-81
2021/12/16 13:17:16;;;;;;;13.30;4.65;;;13.30;65.80;;;;;;6253043;28;20396;-81
2021/12/16 13:23:56;;;;;;;11.90;6.03;;;13.40;65.30;;;;;;6252325;28;20046;-81
2021/12/16 13:27:06;;;;;;;13.13;5.57;;;13.40;65.30;;;;;;6253819;28;20056;-81
2021/12/16 13:30:20;;;;;;;5.88;3.92;;;13.40;64.90;;;;;;6247817;28;20045;-83
2021/12/16 13:33:24;;;;;;;8.75;4.55;;;13.40;64.80;;;;;;6249310;28;20048;-81
2021/12/16 13:36:44;;;;;;;7.15;4.45;;;13.30;64.50;;;;;;6254150;28;20038;-82
2021/12/16 13:39:49;;;;;;;9.65;4.75;;;13.20;64.50;;;;;;6253871;28;20049;-82
2021/12/16 13:42:56;;;;;;;8.13;4.18;;;13.10;65.00;;;;;;6253822;28;20059;-81
2021/12/16 13:46:16;;;;;;;9.65;4.07;;;13.00;65.30;;;;;;6255449;28;20106;-82
2021/12/16 14:03:08;;;;;;;17.05;6.85;;;12.50;66.30;;;;;;6228615;28;20392;-81
2021/12/16 14:06:15;;;;;;;11.68;5.70;;;12.30;66.40;;;;;;6227959;28;20503;-80
2021/12/16 14:09:19;;;;;;;8.68;5.03;;;12.20;66.90;;;;;;6228095;28;20050;-81
2021/12/16 14:15:56;;;;;;;14.07;6.95;;;12.00;67.80;;;;;;6225643;28;20037;-80
2021/12/16 14:26:07;;;;;;;7.60;4.88;;;11.70;68.60;;;;;;6276643;28;20049;-80
2021/12/16 14:33:41;;;;;;;;;;;11.40;69.80;;;;;;6235709;28;20050;-79
2021/12/16 14:43:15;;;;;;;14.23;5.93;;;11.50;70.30;;;;;;6250438;28;20407;-79
2021/12/16 14:46:25;;;;;;;11.02;5.22;;;11.60;70.30;;;;;;6248696;28;20061;-77
2021/12/16 14:49:29;;;;;;;7.68;4.68;;;11.60;70.30;;;;;;6258623;28;20128;-78
2021/12/16 14:52:34;;;;;;;10.32;4.93;;;11.70;70.10;;;;;;6273212;28;20041;-78
2021/12/16 14:55:35;;;;;;;14.20;5.55;;;11.70;70.20;;;;;;6274222;28;20049;-80
2021/12/16 14:58:39;;;;;;;10.63;4.88;;;11.70;69.90;;;;;;6274184;28;20049;-79
2021/12/16 15:01:44;;;;;;;10.05;4.85;;;11.70;69.80;;;;;;6275104;28;20057;-79
2021/12/16 15:04:46;;;;;;;8.73;5.13;;;11.60;70.10;;;;;;6273010;28;20128;-79
2021/12/16 15:07:48;;;;;;;9.80;4.72;;;11.60;70.30;;;;;;6273554;28;20128;-79
2021/12/16 15:10:50;;;;;;;11.73;5.65;;;11.50;70.50;;;;;;6272999;28;20414;-78
2021/12/16 15:13:57;;;;;;;13.73;5.85;;;11.50;70.40;;;;;;6272547;28;20041;-79
2021/12/16 15:17:08;;;;;;;13.95;5.75;;;11.50;70.60;;;;;;6268896;28;20051;-79
2021/12/16 15:37:09;;;;;;;11.18;5.00;;;11.40;71.50;;;;;;6223479;28;20123;-79
2021/12/16 15:40:29;;;;;;;9.00;5.00;;;11.30;71.60;;;;;;6224007;28;20038;-79
2021/12/16 15:43:32;;;;;;;8.73;4.50;;;11.10;72.00;;;;;;6224251;28;20064;-78
2021/12/16 15:46:34;;;;;;;8.00;5.13;;;11.10;72.20;;;;;;6223680;28;20164;-78
2021/12/16 15:49:37;;;;;;;12.70;5.07;;;11.00;72.70;;;;;;6256226;28;20052;-79
2021/12/16 15:52:42;;;;;;;14.30;6.10;;;10.90;73.10;;;;;;6272407;28;20571;-79
2021/12/16 15:55:47;;;;;;;9.98;5.10;;;10.70;73.40;;;;;;6258681;28;20131;-77
2021/12/16 15:58:51;;;;;;;7.82;4.70;;;10.70;74.00;;;;;;6247603;28;20049;-80
2021/12/16 16:01:54;;;;;;;15.20;5.32;;;10.60;74.20;;;;;;6247801;28;20128;-78
2021/12/16 16:04:57;;;;;;;12.02;5.60;;;10.60;74.40;;;;;;6248812;28;20045;-81
2021/12/16 16:08:00;;;;;;;8.70;4.38;;;10.50;74.50;;;;;;6249887;28;20210;-80
2021/12/16 16:11:06;;;;;;;13.10;5.72;;;10.50;74.70;;;;;;6249283;28;20058;-79
2021/12/16 16:14:08;;;;;;;9.23;5.47;;;10.50;74.90;;;;;;6273042;22;20095;-78
2021/12/16 16:17:14;;;;;;;10.95;4.93;;;10.40;75.10;;;;;;6248136;28;20099;-78
2021/12/16 16:20:18;;;;;;;10.50;4.72;;;10.40;75.30;;;;;;6248866;28;20053;-78
2021/12/16 16:23:22;;;;;;;11.48;6.22;;;10.30;75.50;;;;;;6249169;28;20050;-78
2021/12/16 16:26:26;;;;;;;12.02;6.63;;;10.30;75.80;;;;;;6248308;28;20072;-77
2021/12/16 16:29:31;;;;;;;18.25;7.28;;;10.20;76.10;;;;;;6249308;28;20533;-78
2021/12/16 16:33:03;;;;;;;11.85;5.78;;;10.10;76.40;;;;;;6249100;28;20049;-79
2021/12/16 16:36:12;;;;;;;11.02;6.38;;;10.10;77.30;;;;;;6247622;28;20041;-79
2021/12/16 16:39:16;;;;;;;8.77;4.32;;;10.10;77.40;;;;;;6254088;28;20053;-79
2021/12/16 16:42:18;;;;;;;9.18;4.82;;;10.00;77.40;;;;;;6251942;28;20737;-77
2021/12/16 16:45:23;;;;;;;9.98;4.85;;;9.90;77.60;;;;;;6251507;28;20108;-78
2021/12/16 16:48:45;;;;;;;11.48;5.07;;;9.90;77.70;;;;;;6251691;28;20048;-78
2021/12/16 16:51:49;;;;;;;7.80;4.03;;;9.90;77.70;;;;;;6251320;28;20053;-77
2021/12/16 16:55:01;;;;;;;11.73;5.18;;;9.90;77.80;;;;;;6250637;28;20052;-78
2021/12/16 16:58:06;;;;;;;22.60;7.43;;;9.90;77.90;;;;;;6251715;28;20060;-79
2021/12/16 17:01:08;;;;;;;14.93;6.05;;;9.90;78.50;;;;;;6251080;28;20046;-78
2021/12/16 17:04:16;;;;;;;9.77;5.68;;;9.90;78.50;;;;;;6252194;28;20168;-78
2021/12/16 17:07:19;;;;;;;8.70;4.93;;;9.90;78.40;;;;;;6253784;28;20490;-77
2021/12/16 17:10:31;;;;;;;11.13;5.10;;;9.90;78.40;;;;;;6252080;28;20045;-78
2021/12/16 17:13:40;;;;;;;9.48;4.43;;;9.90;78.50;;;;;;6251150;28;20410;-77
2021/12/16 17:20:11;;;;;;;10.73;5.13;;;9.80;78.50;;;;;;6242718;28;20037;-78
2021/12/16 17:23:14;;;;;;;12.70;4.78;;;9.70;78.70;;;;;;6252416;28;20050;-78
2021/12/16 17:26:22;;;;;;;10.55;5.82;;;9.60;79.00;;;;;;6250709;28;20095;-77
2021/12/16 17:29:27;;;;;;;16.58;6.05;;;9.60;79.10;;;;;;6250785;28;20073;-79
2021/12/16 17:32:30;;;;;;;171.57;55.45;;;9.60;79.30;;;;;;6250763;28;20041;-78
2021/12/16 17:35:35;;;;;;;25.70;12.13;;;9.60;82.30;;;;;;6248920;28;20057;-78
2021/12/16 17:38:39;;;;;;;14.43;8.48;;;9.70;81.40;;;;;;6251018;28;20057;-79
2021/12/16 17:41:41;;;;;;;9.00;4.70;;;9.60;80.80;;;;;;6249886;28;20045;-78
2021/12/16 17:44:46;;;;;;;9.85;5.03;;;9.60;80.60;;;;;;6250647;28;20045;-78
2021/12/16 17:47:49;;;;;;;147.18;70.60;;;9.50;80.60;;;;;;6249844;28;20057;-78
2021/12/16 17:50:54;;;;;;;27.77;8.68;;;9.40;81.60;;;;;;6250923;28;20046;-78
2021/12/16 17:54:04;;;;;;;10.57;6.93;;;9.60;87.00;;;;;;6249856;28;20135;-78
2021/12/16 17:57:05;;;;;;;22.30;5.03;;;9.70;86.70;;;;;;6250269;28;20046;-78
2021/12/16 18:00:12;;;;;;;19.50;5.15;;;9.60;84.10;;;;;;6250492;28;20459;-77
2021/12/16 18:03:16;;;;;;;9.88;4.68;;;9.40;83.20;;;;;;6250254;28;20491;-78
2021/12/16 18:06:22;;;;;;;29.35;11.50;;;9.20;82.80;;;;;;6248589;28;20128;-77
2021/12/16 18:09:28;;;;;;;23.83;6.50;;;9.00;82.70;;;;;;6248559;28;20052;-78
2021/12/16 18:12:32;;;;;;;9.65;4.82;;;8.80;82.60;;;;;;6249604;28;20147;-79
2021/12/16 18:15:36;;;;;;;11.00;4.90;;;8.60;82.60;;;;;;6250769;28;20069;-78
2021/12/16 18:18:38;;;;;;;8.70;4.63;;;8.40;82.80;;;;;;6252559;28;20049;-78
2021/12/16 18:21:42;;;;;;;10.23;4.28;;;8.30;83.10;;;;;;6252049;28;20049;-78
2021/12/16 18:24:48;;;;;;;8.85;4.68;;;8.10;83.10;;;;;;6251782;28;20044;-79
2021/12/16 18:27:55;;;;;;;16.85;4.53;;;8.00;83.10;;;;;;6248127;28;20060;-77
2021/12/16 18:31:02;;;;;;;15.10;5.15;;;7.90;83.40;;;;;;6248551;28;20453;-80
2021/12/16 18:34:14;;;;;;;10.17;4.37;;;7.70;83.70;;;;;;6249655;28;20046;-79
2021/12/16 18:37:16;;;;;;;11.10;3.90;;;7.60;83.80;;;;;;6249374;28;20038;-79
2021/12/16 18:40:23;;;;;;;14.70;3.67;;;7.50;84.10;;;;;;6249870;28;20188;-80
2021/12/16 18:43:25;;;;;;;16.83;5.45;;;7.40;84.20;;;;;;6249343;28;20053;-78
2021/12/16 18:46:28;;;;;;;14.80;5.50;;;7.30;84.30;;;;;;6247058;28;20048;-77
2021/12/16 18:49:37;;;;;;;20.45;7.43;;;7.20;84.60;;;;;;6247495;28;20064;-77
2021/12/16 18:54:27;;;;;;;9.48;4.95;;;7.10;84.60;;;;;;6250655;28;20041;-79
2021/12/16 18:56:10;;;;;;;17.98;7.40;;;7.00;85.00;;;;;;6252965;28;20053;-79
2021/12/16 18:59:15;;;;;;;14.45;5.65;;;6.90;84.80;;;;;;6254196;28;20128;-79
2021/12/16 19:02:19;;;;;;;17.98;5.55;;;6.80;85.10;;;;;;6248830;28;20064;-78